Buoy 54955

sailwx.info

Track history (hours):
 
Tides and Currents Weather Stations Pressure Air Temp Water Temp Dewpoint Dewpoint Depression Visibility Wind Speed Wind Dir Waves Ship Positions

Luruyu54955

Last reported at 2017-Feb-24 00:00 UTC. Time now 2017-Feb-24 02:21 UTC.
Position S 33°24' W 145°50'.

Length 27 m.

Type: Fishing. MMSI: 412330945.

Barometer 1002.1 mb
Water temperature 23.4 ° C

Date/timePositionNaut miles runAvg speedWind from/ knotsBaromVisibWave heightAir tempDewpointWater temp
2017-Feb-24 00:00S 33°24' W 145°50'2 0.3 1002.1 23.4
2017-Feb-23 18:00S 33°26' W 145°50'2 1.8 1004.1 22.9
2017-Feb-23 17:00S 33°28' W 145°50'1 0.5 1003.5 22.9
2017-Feb-23 16:00S 33°28' W 145°50'1 1.3 1002.7 22.9
2017-Feb-23 15:00S 33°29' W 145°50'1 1.0 1002.0 22.9
2017-Feb-23 14:00S 33°29' W 145°51'1 1.2 1001.7 22.9
2017-Feb-23 13:00S 33°29' W 145°52'0 0.0 1001.1 22.9
2017-Feb-23 12:00S 33°29' W 145°52'3 1.0 1000.9 22.9
2017-Feb-23 09:00S 33°26' W 145°52'1 0.6 1001.5 23.1
2017-Feb-23 08:00S 33°26' W 145°52'1 1.0 1001.1 23.1
2017-Feb-23 07:00S 33°26' W 145°51'1 1.2 1001.5 23.1
2017-Feb-23 06:00S 33°25' W 145°50'3 1.4 1002.1 23.1
2017-Feb-23 04:00S 33°23' W 145°48'0 0.0 1001.9 23.2
2017-Feb-23 03:00S 33°23' W 145°48'2 1.5 1002.3 23.1
2017-Feb-23 02:00S 33°23' W 145°46'2 1.5 1003.4 23.1
2017-Feb-23 01:00S 33°23' W 145°44'0 0.0 1003.8 23.0
2017-Feb-23 00:00S 33°23' W 145°44'0 0.0 1005.7 23.1
2017-Feb-22 23:00S 33°23' W 145°44'2 0.4 1007.0 23.1
2017-Feb-22 19:00S 33°22' W 145°43'0 0.0 1009.7 23.1
2017-Feb-22 18:00S 33°22' W 145°43'1 0.8 1010.3 23.1
2017-Feb-22 17:00S 33°23' W 145°42'1 0.8 1010.7 23.1
2017-Feb-22 16:00S 33°23' W 145°41'1 0.8 1010.5 23.0
2017-Feb-22 15:00S 33°24' W 145°42'0 0.0 1010.3 23.1
2017-Feb-22 14:00S 33°24' W 145°42'1 0.3 1010.0 23.1
2017-Feb-22 12:00S 33°24' W 145°43'0 0.0 1010.5 23.1
2017-Feb-22 10:00S 33°24' W 145°43'1 0.4 1010.8 23.2
2017-Feb-22 07:00S 33°23' W 145°43'0 0.0 1011.7 23.3
2017-Feb-22 06:00S 33°23' W 145°43'0 0.0 1012.1 23.3
2017-Feb-22 05:00S 33°23' W 145°43'2 1.6 1012.1 23.3
2017-Feb-22 04:00S 33°22' W 145°41'1 0.5 1011.3 23.3
2017-Feb-22 03:00S 33°22' W 145°40'0 0.0 1010.7 23.3
2017-Feb-22 02:00S 33°22' W 145°40'0 0.0 1010.8 23.4
2017-Feb-22 01:00S 33°22' W 145°40'1 0.8 1010.7 23.4
2017-Feb-22 00:00S 33°22' W 145°40'0 0.0 1011.1 23.4
2017-Feb-21 23:00S 33°22' W 145°40'3 1.2 1011.2 23.4
2017-Feb-21 20:00S 33°24' W 145°37'3 3.1 1011.5 23.4
2017-Feb-21 19:00S 33°26' W 145°34'2 0.8 1011.3 23.4
2017-Feb-21 17:00S 33°27' W 145°36'1 0.8 1010.8 23.4
2017-Feb-21 16:00S 33°28' W 145°37'1 0.5 1010.1 23.4
2017-Feb-21 15:00S 33°28' W 145°37'1 1.2 1009.6 23.4
2017-Feb-21 14:00S 33°28' W 145°38'1 0.4 1008.8 23.4
2017-Feb-21 12:00S 33°28' W 145°39'0 0.0 1009.0 23.4
2017-Feb-21 11:00S 33°28' W 145°39'0 0.0 1009.2 23.5
2017-Feb-21 10:00S 33°28' W 145°39'1 0.6 1009.2 23.5
2017-Feb-21 08:00S 33°29' W 145°39'1 0.5 1009.3 23.5
2017-Feb-21 07:00S 33°29' W 145°38'1 1.3 1008.9 23.5
2017-Feb-21 06:00S 33°30' W 145°39'0 0.0 1008.8 23.5
2017-Feb-21 05:00S 33°30' W 145°39'1 1.0 1008.2 23.6
2017-Feb-21 04:00S 33°30' W 145°40'1 0.6 1007.6 23.7
2017-Feb-21 03:00S 33°31' W 145°40'1 1.3 1007.5 23.8
2017-Feb-21 02:00S 33°32' W 145°40'2 1.5 1007.4 23.9
2017-Feb-21 01:00S 33°32' W 145°41'2 0.3 1007.4 24.1
2017-Feb-20 19:00S 33°33' W 145°43'1 1.2 1008.8 23.2
2017-Feb-20 18:00S 33°34' W 145°44'0 0.5 1008.7 23.1
2017-Feb-20 17:00S 33°34' W 145°45'0 0.0 1008.8 23.1
2017-Feb-20 16:00S 33°34' W 145°45'1 1.3 1008.7 23.1
2017-Feb-20 15:00S 33°32' W 145°44'0 0.0 1008.2 23.1
2017-Feb-20 14:00S 33°32' W 145°44'2 1.6 1008.1 23.2
2017-Feb-20 13:00S 33°31' W 145°46'1 0.6 1008.4 23.2
2017-Feb-20 12:00S 33°31' W 145°46'1 0.5 1008.5 23.3
2017-Feb-20 11:00S 33°31' W 145°46'2 2.1 1008.8 23.3
2017-Feb-20 10:00S 33°30' W 145°44'2 0.5 1009.1 23.3
2017-Feb-20 07:00S 33°30' W 145°42'2 1.9 1009.3 23.3
2017-Feb-20 06:00S 33°31' W 145°40'0 0.0 1009.3 23.4
2017-Feb-20 05:00S 33°31' W 145°40'0 0.0 1008.7 23.4
2017-Feb-20 04:00S 33°31' W 145°40'3 2.6 1008.2 23.5
2017-Feb-20 03:00S 33°34' W 145°39'1 1.2 1008.0 23.5
2017-Feb-20 02:00S 33°34' W 145°40'1 1.2 1007.7 23.6
2017-Feb-20 01:00S 33°35' W 145°41'5 4.8 1007.4 23.7
2017-Feb-20 00:00S 33°37' W 145°47'4 3.5 1007.8 23.6
2017-Feb-19 23:00S 33°36' W 145°43'4 1.2 1008.0 23.6
2017-Feb-19 20:00S 33°37' W 145°47'0 0.0 1008.1 23.3
2017-Feb-19 19:00S 33°37' W 145°47'2 2.1 1007.8 23.2
2017-Feb-19 18:00S 33°36' W 145°49'2 1.6 1007.5 23.1
2017-Feb-19 17:00S 33°37' W 145°51'1 0.6 1006.8 23.0
2017-Feb-19 16:00S 33°36' W 145°51'1 1.2 1006.6 23.0
2017-Feb-19 15:00S 33°35' W 145°51'0 0.0 1005.7 23.0
2017-Feb-19 14:00S 33°35' W 145°51'1 1.2 1004.8 23.1
2017-Feb-19 13:00S 33°34' W 145°50'1 0.6 1005.1 23.1
2017-Feb-19 12:00S 33°34' W 145°50'3 1.3 1004.6 23.1
2017-Feb-19 10:00S 33°33' W 145°47'0 0.0 1005.7 23.1
2017-Feb-19 08:00S 33°33' W 145°47'0 0.0 1005.8 23.1
2017-Feb-19 07:00S 33°33' W 145°47'3 2.6 1006.0 23.1
2017-Feb-19 06:00S 33°34' W 145°44'0 0.5 1005.6 23.1
2017-Feb-19 05:00S 33°34' W 145°44'3 2.7 1005.1 23.1
2017-Feb-19 04:00S 33°35' W 145°42'1 0.8 1004.8 23.1
2017-Feb-19 03:00S 33°36' W 145°43'0 0.0 1004.2 23.1
2017-Feb-19 02:00S 33°36' W 145°43'1 1.2 1004.1 23.2
2017-Feb-19 01:00S 33°37' W 145°43'0 0.0 1004.3 23.2
2017-Feb-19 00:00S 33°37' W 145°43'0 0.0 1005.0 23.1
2017-Feb-18 23:00S 33°37' W 145°43'1 0.3 1005.5 23.1
2017-Feb-18 19:00S 33°38' W 145°42'0 0.5 1007.1 22.9
2017-Feb-18 18:00S 33°38' W 145°43'0 0.0 1007.4 22.9
2017-Feb-18 17:00S 33°38' W 145°43'0 0.0 1007.4 22.9
2017-Feb-18 16:00S 33°38' W 145°43'0 0.5 1006.9 22.9
2017-Feb-18 15:00S 33°38' W 145°42'1 0.8 1006.5 22.9
2017-Feb-18 14:00S 33°38' W 145°41'0 0.0 1006.4 22.9
2017-Feb-18 13:00S 33°38' W 145°41'1 0.6 1006.5 22.9
2017-Feb-18 12:00S 33°37' W 145°41'1 1.0 1007.0 22.9
2017-Feb-18 11:00S 33°37' W 145°43'3 1.5 1007.8 22.9
2017-Feb-18 09:00S 33°37' W 145°39'1 0.4 1009.4 23.1
2017-Feb-18 07:00S 33°37' W 145°38'1 1.2 1010.0 23.1
2017-Feb-18 06:00S 33°38' W 145°37'1 0.8 1010.0 23.1
2017-Feb-18 05:00S 33°38' W 145°38'0 0.0 1009.7 23.1
2017-Feb-18 04:00S 33°38' W 145°38'1 1.2 1009.8 23.1
2017-Feb-18 03:00S 33°38' W 145°37'2 2.1 1009.2 23.1
2017-Feb-18 02:00S 33°40' W 145°38'1 1.0 1009.5 23.3
2017-Feb-18 01:00S 33°40' W 145°39'0 0.5 1009.7 23.3
2017-Feb-18 00:00S 33°40' W 145°38'0 0.0 1009.8 23.4
2017-Feb-17 23:00S 33°40' W 145°38'2 0.6 1010.0 23.4
2017-Feb-17 19:00S 33°38' W 145°41'0 0.5 1010.9 22.8
2017-Feb-17 18:00S 33°38' W 145°40'0 0.5 1011.3 22.8
2017-Feb-17 17:00S 33°38' W 145°41'0 0.5 1011.5 22.8
2017-Feb-17 16:00S 33°38' W 145°40'0 0.0 1011.4 22.7
2017-Feb-17 15:00S 33°38' W 145°40'1 0.8 1011.2 22.7
2017-Feb-17 14:00S 33°39' W 145°40'0 0.0 1011.2 22.6
2017-Feb-17 13:00S 33°39' W 145°40'0 0.5 1011.1 22.4
2017-Feb-17 12:00S 33°39' W 145°39'0 0.0 1011.7 22.5
2017-Feb-17 11:00S 33°39' W 145°39'3 1.1 1012.1 22.4
2017-Feb-17 08:00S 33°40' W 145°35'1 1.3 1012.8 22.6
2017-Feb-17 07:00S 33°41' W 145°35'1 0.8 1012.9 22.6
2017-Feb-17 06:00S 33°42' W 145°34'1 1.2 1012.6 22.7
2017-Feb-17 05:00S 33°43' W 145°34'2 1.9 1012.1 22.7
2017-Feb-17 04:00S 33°45' W 145°35'0 0.0 1012.4 22.7
2017-Feb-17 03:00S 33°45' W 145°35'2 2.3 1011.9 22.8
2017-Feb-17 02:00S 33°46' W 145°37'0 0.2 1012.0 22.9
2017-Feb-17 00:00S 33°46' W 145°37'3 0.7 1012.6 22.8
2017-Feb-16 20:00S 33°44' W 145°38'1 1.2 1013.9 22.2
2017-Feb-16 19:00S 33°43' W 145°37'1 0.6 1013.8 22.1
2017-Feb-16 18:00S 33°44' W 145°37'0 0.0 1014.0 22.1
2017-Feb-16 17:00S 33°44' W 145°37'2 1.6 1013.8 22.1
2017-Feb-16 16:00S 33°43' W 145°35'0 0.0 1013.7 22.2
2017-Feb-16 15:00S 33°43' W 145°35'1 1.2 1013.3 22.3
2017-Feb-16 14:00S 33°44' W 145°34'0 0.0 1013.3 22.3
2017-Feb-16 13:00S 33°44' W 145°34'1 1.2 1013.5 22.4
2017-Feb-16 12:00S 33°44' W 145°33'0 0.0 1013.6 22.4
2017-Feb-16 11:00S 33°44' W 145°33'3 1.5 1014.0 22.5
2017-Feb-16 09:00S 33°47' W 145°33'1 0.8 1014.8 22.7
2017-Feb-16 08:00S 33°48' W 145°34'0 0.0 1015.0 22.7
2017-Feb-16 07:00S 33°48' W 145°34'1 0.8 1015.2 22.7
2017-Feb-16 06:00S 33°49' W 145°33'2 2.3 1015.3 22.7
2017-Feb-16 05:00S 33°50' W 145°35'0 0.0 1015.1 22.8
2017-Feb-16 04:00S 33°50' W 145°35'0 0.0 1014.8 22.8
2017-Feb-16 03:00S 33°50' W 145°35'2 1.6 1014.9 22.7
2017-Feb-16 02:00S 33°49' W 145°37'0 0.0 1014.9 22.7
2017-Feb-16 00:00S 33°49' W 145°37'3 0.6 1015.2 22.5
2017-Feb-15 19:00S 33°46' W 145°38'0 0.5 1016.3 22.3
2017-Feb-15 18:00S 33°46' W 145°37'1 1.5 1016.4 22.2
2017-Feb-15 17:00S 33°46' W 145°35'0 0.0 1016.3 22.2
2017-Feb-15 16:00S 33°46' W 145°35'1 0.6 1016.0 22.2
2017-Feb-15 15:00S 33°47' W 145°35'2 2.5 1015.6 22.2
2017-Feb-15 14:00S 33°49' W 145°36'0 0.0 1015.3 22.2
2017-Feb-15 13:00S 33°49' W 145°36'0 0.0 1015.1 22.2
2017-Feb-15 12:00S 33°49' W 145°36'0 0.0 1015.1 22.3
2017-Feb-15 11:00S 33°49' W 145°36'2 0.5 1015.2 22.3
2017-Feb-15 07:00S 33°50' W 145°38'0 0.5 1015.6 22.3
2017-Feb-15 06:00S 33°50' W 145°38'1 0.8 1015.2 22.3
2017-Feb-15 05:00S 33°51' W 145°39'1 1.2 1014.7 22.4
2017-Feb-15 04:00S 33°50' W 145°40'0 0.0 1014.2 22.5
2017-Feb-15 03:00S 33°50' W 145°40'1 1.3 1013.8 22.5
2017-Feb-15 02:00S 33°49' W 145°40'0 0.5 1013.7 22.5
2017-Feb-15 01:00S 33°49' W 145°40'0 0.0 1013.7 22.6
2017-Feb-15 00:00S 33°49' W 145°40'1 0.1 1013.6 22.4
2017-Feb-14 20:00S 33°49' W 145°40'0 0.5 1014.2 22.1
2017-Feb-14 19:00S 33°49' W 145°41'0 0.0 1014.3 22.1
2017-Feb-14 18:00S 33°49' W 145°41'1 1.2 1014.2 22.1
2017-Feb-14 17:00S 33°49' W 145°40'0 0.0 1014.0 22.1
2017-Feb-14 16:00S 33°49' W 145°40'2 1.9 1013.7 22.1
2017-Feb-14 15:00S 33°51' W 145°40'0 0.0 1013.3 22.1
2017-Feb-14 14:00S 33°51' W 145°40'0 0.0 1013.1 22.1
2017-Feb-14 13:00S 33°51' W 145°40'0 0.0 1012.7 22.1
2017-Feb-14 12:00S 33°51' W 145°40'1 0.3 1012.7 22.1
2017-Feb-14 08:00S 33°52' W 145°41'1 1.0 1013.3 22.1
2017-Feb-14 07:00S 33°52' W 145°43'0 0.5 1013.2 22.2
2017-Feb-14 06:00S 33°52' W 145°43'1 0.6 1012.8 22.2
2017-Feb-14 04:00S 33°50' W 145°43'0 0.5 1012.0 22.2
2017-Feb-14 03:00S 33°50' W 145°43'2 1.6 1011.6 22.2
2017-Feb-14 02:00S 33°50' W 145°41'0 0.0 1011.7 22.3
2017-Feb-14 01:00S 33°50' W 145°41'0 0.0 1011.9 22.4
2017-Feb-14 00:00S 33°50' W 145°41'   1011.8 22.4
Track history (hours):
 
Tides and Currents Weather Stations Pressure Air Temp Water Temp Dewpoint Dewpoint Depression Visibility Wind Speed Wind Dir Waves Ship Positions

Luruyu54955

Last reported at 2017-Feb-24 00:00 UTC. Time now 2017-Feb-24 02:21 UTC.
Position S 33°24' W 145°50'.

Length 27 m.

Type: Fishing. MMSI: 412330945.

Barometer 1002.1 mb
Water temperature 23.4 ° C

Date/timePositionNaut miles runAvg speedWind from/ knotsBaromVisibWave heightAir tempDewpointWater temp
2017-Feb-24 00:00S 33°24' W 145°50'2 0.3 1002.1 23.4
2017-Feb-23 18:00S 33°26' W 145°50'2 1.8 1004.1 22.9
2017-Feb-23 17:00S 33°28' W 145°50'1 0.5 1003.5 22.9
2017-Feb-23 16:00S 33°28' W 145°50'1 1.3 1002.7 22.9
2017-Feb-23 15:00S 33°29' W 145°50'1 1.0 1002.0 22.9
2017-Feb-23 14:00S 33°29' W 145°51'1 1.2 1001.7 22.9
2017-Feb-23 13:00S 33°29' W 145°52'0 0.0 1001.1 22.9
2017-Feb-23 12:00S 33°29' W 145°52'3 1.0 1000.9 22.9
2017-Feb-23 09:00S 33°26' W 145°52'1 0.6 1001.5 23.1
2017-Feb-23 08:00S 33°26' W 145°52'1 1.0 1001.1 23.1
2017-Feb-23 07:00S 33°26' W 145°51'1 1.2 1001.5 23.1
2017-Feb-23 06:00S 33°25' W 145°50'3 1.4 1002.1 23.1
2017-Feb-23 04:00S 33°23' W 145°48'0 0.0 1001.9 23.2
2017-Feb-23 03:00S 33°23' W 145°48'2 1.5 1002.3 23.1
2017-Feb-23 02:00S 33°23' W 145°46'2 1.5 1003.4 23.1
2017-Feb-23 01:00S 33°23' W 145°44'0 0.0 1003.8 23.0
2017-Feb-23 00:00S 33°23' W 145°44'0 0.0 1005.7 23.1
2017-Feb-22 23:00S 33°23' W 145°44'2 0.4 1007.0 23.1
2017-Feb-22 19:00S 33°22' W 145°43'0 0.0 1009.7 23.1
2017-Feb-22 18:00S 33°22' W 145°43'1 0.8 1010.3 23.1
2017-Feb-22 17:00S 33°23' W 145°42'1 0.8 1010.7 23.1
2017-Feb-22 16:00S 33°23' W 145°41'1 0.8 1010.5 23.0
2017-Feb-22 15:00S 33°24' W 145°42'0 0.0 1010.3 23.1
2017-Feb-22 14:00S 33°24' W 145°42'1 0.3 1010.0 23.1
2017-Feb-22 12:00S 33°24' W 145°43'0 0.0 1010.5 23.1
2017-Feb-22 10:00S 33°24' W 145°43'1 0.4 1010.8 23.2
2017-Feb-22 07:00S 33°23' W 145°43'0 0.0 1011.7 23.3
2017-Feb-22 06:00S 33°23' W 145°43'0 0.0 1012.1 23.3
2017-Feb-22 05:00S 33°23' W 145°43'2 1.6 1012.1 23.3
2017-Feb-22 04:00S 33°22' W 145°41'1 0.5 1011.3 23.3
2017-Feb-22 03:00S 33°22' W 145°40'0 0.0 1010.7 23.3
2017-Feb-22 02:00S 33°22' W 145°40'0 0.0 1010.8 23.4
2017-Feb-22 01:00S 33°22' W 145°40'1 0.8 1010.7 23.4
2017-Feb-22 00:00S 33°22' W 145°40'0 0.0 1011.1 23.4
2017-Feb-21 23:00S 33°22' W 145°40'3 1.2 1011.2 23.4
2017-Feb-21 20:00S 33°24' W 145°37'3 3.1 1011.5 23.4
2017-Feb-21 19:00S 33°26' W 145°34'2 0.8 1011.3 23.4
2017-Feb-21 17:00S 33°27' W 145°36'1 0.8 1010.8 23.4
2017-Feb-21 16:00S 33°28' W 145°37'1 0.5 1010.1 23.4
2017-Feb-21 15:00S 33°28' W 145°37'1 1.2 1009.6 23.4
2017-Feb-21 14:00S 33°28' W 145°38'1 0.4 1008.8 23.4
2017-Feb-21 12:00S 33°28' W 145°39'0 0.0 1009.0 23.4
2017-Feb-21 11:00S 33°28' W 145°39'0 0.0 1009.2 23.5
2017-Feb-21 10:00S 33°28' W 145°39'1 0.6 1009.2 23.5
2017-Feb-21 08:00S 33°29' W 145°39'1 0.5 1009.3 23.5
2017-Feb-21 07:00S 33°29' W 145°38'1 1.3 1008.9 23.5
2017-Feb-21 06:00S 33°30' W 145°39'0 0.0 1008.8 23.5
2017-Feb-21 05:00S 33°30' W 145°39'1 1.0 1008.2 23.6
2017-Feb-21 04:00S 33°30' W 145°40'1 0.6 1007.6 23.7
2017-Feb-21 03:00S 33°31' W 145°40'1 1.3 1007.5 23.8
2017-Feb-21 02:00S 33°32' W 145°40'2 1.5 1007.4 23.9
2017-Feb-21 01:00S 33°32' W 145°41'2 0.3 1007.4 24.1
2017-Feb-20 19:00S 33°33' W 145°43'1 1.2 1008.8 23.2
2017-Feb-20 18:00S 33°34' W 145°44'0 0.5 1008.7 23.1
2017-Feb-20 17:00S 33°34' W 145°45'0 0.0 1008.8 23.1
2017-Feb-20 16:00S 33°34' W 145°45'1 1.3 1008.7 23.1
2017-Feb-20 15:00S 33°32' W 145°44'0 0.0 1008.2 23.1
2017-Feb-20 14:00S 33°32' W 145°44'2 1.6 1008.1 23.2
2017-Feb-20 13:00S 33°31' W 145°46'1 0.6 1008.4 23.2
2017-Feb-20 12:00S 33°31' W 145°46'1 0.5 1008.5 23.3
2017-Feb-20 11:00S 33°31' W 145°46'2 2.1 1008.8 23.3
2017-Feb-20 10:00S 33°30' W 145°44'2 0.5 1009.1 23.3
2017-Feb-20 07:00S 33°30' W 145°42'2 1.9 1009.3 23.3
2017-Feb-20 06:00S 33°31' W 145°40'0 0.0 1009.3 23.4
2017-Feb-20 05:00S 33°31' W 145°40'0 0.0 1008.7 23.4
2017-Feb-20 04:00S 33°31' W 145°40'3 2.6 1008.2 23.5
2017-Feb-20 03:00S 33°34' W 145°39'1 1.2 1008.0 23.5
2017-Feb-20 02:00S 33°34' W 145°40'1 1.2 1007.7 23.6
2017-Feb-20 01:00S 33°35' W 145°41'5 4.8 1007.4 23.7
2017-Feb-20 00:00S 33°37' W 145°47'4 3.5 1007.8 23.6
2017-Feb-19 23:00S 33°36' W 145°43'4 1.2 1008.0 23.6
2017-Feb-19 20:00S 33°37' W 145°47'0 0.0 1008.1 23.3
2017-Feb-19 19:00S 33°37' W 145°47'2 2.1 1007.8 23.2
2017-Feb-19 18:00S 33°36' W 145°49'2 1.6 1007.5 23.1
2017-Feb-19 17:00S 33°37' W 145°51'1 0.6 1006.8 23.0
2017-Feb-19 16:00S 33°36' W 145°51'1 1.2 1006.6 23.0
2017-Feb-19 15:00S 33°35' W 145°51'0 0.0 1005.7 23.0
2017-Feb-19 14:00S 33°35' W 145°51'1 1.2 1004.8 23.1
2017-Feb-19 13:00S 33°34' W 145°50'1 0.6 1005.1 23.1
2017-Feb-19 12:00S 33°34' W 145°50'3 1.3 1004.6 23.1
2017-Feb-19 10:00S 33°33' W 145°47'0 0.0 1005.7 23.1
2017-Feb-19 08:00S 33°33' W 145°47'0 0.0 1005.8 23.1
2017-Feb-19 07:00S 33°33' W 145°47'3 2.6 1006.0 23.1
2017-Feb-19 06:00S 33°34' W 145°44'0 0.5 1005.6 23.1
2017-Feb-19 05:00S 33°34' W 145°44'3 2.7 1005.1 23.1
2017-Feb-19 04:00S 33°35' W 145°42'1 0.8 1004.8 23.1
2017-Feb-19 03:00S 33°36' W 145°43'0 0.0 1004.2 23.1
2017-Feb-19 02:00S 33°36' W 145°43'1 1.2 1004.1 23.2
2017-Feb-19 01:00S 33°37' W 145°43'0 0.0 1004.3 23.2
2017-Feb-19 00:00S 33°37' W 145°43'0 0.0 1005.0 23.1
2017-Feb-18 23:00S 33°37' W 145°43'1 0.3 1005.5 23.1
2017-Feb-18 19:00S 33°38' W 145°42'0 0.5 1007.1 22.9
2017-Feb-18 18:00S 33°38' W 145°43'0 0.0 1007.4 22.9
2017-Feb-18 17:00S 33°38' W 145°43'0 0.0 1007.4 22.9
2017-Feb-18 16:00S 33°38' W 145°43'0 0.5 1006.9 22.9
2017-Feb-18 15:00S 33°38' W 145°42'1 0.8 1006.5 22.9
2017-Feb-18 14:00S 33°38' W 145°41'0 0.0 1006.4 22.9
2017-Feb-18 13:00S 33°38' W 145°41'1 0.6 1006.5 22.9
2017-Feb-18 12:00S 33°37' W 145°41'1 1.0 1007.0 22.9
2017-Feb-18 11:00S 33°37' W 145°43'3 1.5 1007.8 22.9
2017-Feb-18 09:00S 33°37' W 145°39'1 0.4 1009.4 23.1
2017-Feb-18 07:00S 33°37' W 145°38'1 1.2 1010.0 23.1
2017-Feb-18 06:00S 33°38' W 145°37'1 0.8 1010.0 23.1
2017-Feb-18 05:00S 33°38' W 145°38'0 0.0 1009.7 23.1
2017-Feb-18 04:00S 33°38' W 145°38'1 1.2 1009.8 23.1
2017-Feb-18 03:00S 33°38' W 145°37'2 2.1 1009.2 23.1
2017-Feb-18 02:00S 33°40' W 145°38'1 1.0 1009.5 23.3
2017-Feb-18 01:00S 33°40' W 145°39'0 0.5 1009.7 23.3
2017-Feb-18 00:00S 33°40' W 145°38'0 0.0 1009.8 23.4
2017-Feb-17 23:00S 33°40' W 145°38'2 0.6 1010.0 23.4
2017-Feb-17 19:00S 33°38' W 145°41'0 0.5 1010.9 22.8
2017-Feb-17 18:00S 33°38' W 145°40'0 0.5 1011.3 22.8
2017-Feb-17 17:00S 33°38' W 145°41'0 0.5 1011.5 22.8
2017-Feb-17 16:00S 33°38' W 145°40'0 0.0 1011.4 22.7
2017-Feb-17 15:00S 33°38' W 145°40'1 0.8 1011.2 22.7
2017-Feb-17 14:00S 33°39' W 145°40'0 0.0 1011.2 22.6
2017-Feb-17 13:00S 33°39' W 145°40'0 0.5 1011.1 22.4
2017-Feb-17 12:00S 33°39' W 145°39'0 0.0 1011.7 22.5
2017-Feb-17 11:00S 33°39' W 145°39'3 1.1 1012.1 22.4
2017-Feb-17 08:00S 33°40' W 145°35'1 1.3 1012.8 22.6
2017-Feb-17 07:00S 33°41' W 145°35'1 0.8 1012.9 22.6
2017-Feb-17 06:00S 33°42' W 145°34'1 1.2 1012.6 22.7
2017-Feb-17 05:00S 33°43' W 145°34'2 1.9 1012.1 22.7
2017-Feb-17 04:00S 33°45' W 145°35'0 0.0 1012.4 22.7
2017-Feb-17 03:00S 33°45' W 145°35'2 2.3 1011.9 22.8
2017-Feb-17 02:00S 33°46' W 145°37'0 0.2 1012.0 22.9
2017-Feb-17 00:00S 33°46' W 145°37'3 0.7 1012.6 22.8
2017-Feb-16 20:00S 33°44' W 145°38'1 1.2 1013.9 22.2
2017-Feb-16 19:00S 33°43' W 145°37'1 0.6 1013.8 22.1
2017-Feb-16 18:00S 33°44' W 145°37'0 0.0 1014.0 22.1
2017-Feb-16 17:00S 33°44' W 145°37'2 1.6 1013.8 22.1
2017-Feb-16 16:00S 33°43' W 145°35'0 0.0 1013.7 22.2
2017-Feb-16 15:00S 33°43' W 145°35'1 1.2 1013.3 22.3
2017-Feb-16 14:00S 33°44' W 145°34'0 0.0 1013.3 22.3
2017-Feb-16 13:00S 33°44' W 145°34'1 1.2 1013.5 22.4
2017-Feb-16 12:00S 33°44' W 145°33'0 0.0 1013.6 22.4
2017-Feb-16 11:00S 33°44' W 145°33'3 1.5 1014.0 22.5
2017-Feb-16 09:00S 33°47' W 145°33'1 0.8 1014.8 22.7
2017-Feb-16 08:00S 33°48' W 145°34'0 0.0 1015.0 22.7
2017-Feb-16 07:00S 33°48' W 145°34'1 0.8 1015.2 22.7
2017-Feb-16 06:00S 33°49' W 145°33'2 2.3 1015.3 22.7
2017-Feb-16 05:00S 33°50' W 145°35'0 0.0 1015.1 22.8
2017-Feb-16 04:00S 33°50' W 145°35'0 0.0 1014.8 22.8
2017-Feb-16 03:00S 33°50' W 145°35'2 1.6 1014.9 22.7
2017-Feb-16 02:00S 33°49' W 145°37'0 0.0 1014.9 22.7
2017-Feb-16 00:00S 33°49' W 145°37'3 0.6 1015.2 22.5
2017-Feb-15 19:00S 33°46' W 145°38'0 0.5 1016.3 22.3
2017-Feb-15 18:00S 33°46' W 145°37'1 1.5 1016.4 22.2
2017-Feb-15 17:00S 33°46' W 145°35'0 0.0 1016.3 22.2
2017-Feb-15 16:00S 33°46' W 145°35'1 0.6 1016.0 22.2
2017-Feb-15 15:00S 33°47' W 145°35'2 2.5 1015.6 22.2
2017-Feb-15 14:00S 33°49' W 145°36'0 0.0 1015.3 22.2
2017-Feb-15 13:00S 33°49' W 145°36'0 0.0 1015.1 22.2
2017-Feb-15 12:00S 33°49' W 145°36'0 0.0 1015.1 22.3
2017-Feb-15 11:00S 33°49' W 145°36'2 0.5 1015.2 22.3
2017-Feb-15 07:00S 33°50' W 145°38'0 0.5 1015.6 22.3
2017-Feb-15 06:00S 33°50' W 145°38'1 0.8 1015.2 22.3
2017-Feb-15 05:00S 33°51' W 145°39'1 1.2 1014.7 22.4
2017-Feb-15 04:00S 33°50' W 145°40'0 0.0 1014.2 22.5
2017-Feb-15 03:00S 33°50' W 145°40'1 1.3 1013.8 22.5
2017-Feb-15 02:00S 33°49' W 145°40'0 0.5 1013.7 22.5
2017-Feb-15 01:00S 33°49' W 145°40'0 0.0 1013.7 22.6
2017-Feb-15 00:00S 33°49' W 145°40'1 0.1 1013.6 22.4
2017-Feb-14 20:00S 33°49' W 145°40'0 0.5 1014.2 22.1
2017-Feb-14 19:00S 33°49' W 145°41'0 0.0 1014.3 22.1
2017-Feb-14 18:00S 33°49' W 145°41'1 1.2 1014.2 22.1
2017-Feb-14 17:00S 33°49' W 145°40'0 0.0 1014.0 22.1
2017-Feb-14 16:00S 33°49' W 145°40'2 1.9 1013.7 22.1
2017-Feb-14 15:00S 33°51' W 145°40'0 0.0 1013.3 22.1
2017-Feb-14 14:00S 33°51' W 145°40'0 0.0 1013.1 22.1
2017-Feb-14 13:00S 33°51' W 145°40'0 0.0 1012.7 22.1
2017-Feb-14 12:00S 33°51' W 145°40'1 0.3 1012.7 22.1
2017-Feb-14 08:00S 33°52' W 145°41'1 1.0 1013.3 22.1
2017-Feb-14 07:00S 33°52' W 145°43'0 0.5 1013.2 22.2
2017-Feb-14 06:00S 33°52' W 145°43'1 0.6 1012.8 22.2
2017-Feb-14 04:00S 33°50' W 145°43'0 0.5 1012.0 22.2
2017-Feb-14 03:00S 33°50' W 145°43'2 1.6 1011.6 22.2
2017-Feb-14 02:00S 33°50' W 145°41'0 0.0 1011.7 22.3
2017-Feb-14 01:00S 33°50' W 145°41'0 0.0 1011.9 22.4
2017-Feb-14 00:00S 33°50' W 145°41'   1011.8 22.4

Dump ship's entire track history